Time;durP1;ratioP1;P1;durP2;ratioP2;P2;SDS_P1;SDS_P2;PMS_P1;PMS_P2;Temp;Humidity;BMP_temperature;BMP_pressure;BME280_temperature;BME280_humidity;BME280_pressure;Samples;Min_cycle;Max_cycle;Signal;HPM_P1;HPM_P2
2023/09/26 00:01:45;;;;;;;;;15.67;11.67;;;;;18.96;100.00;101860.50;5074725;27;61875;-74
2023/09/26 00:04:10;;;;;;;;;13.67;11.00;;;;;18.94;100.00;101851.63;5075863;27;45518;-74
2023/09/26 00:06:35;;;;;;;;;12.33;11.00;;;;;18.98;100.00;101859.63;5076027;28;45459;-76
2023/09/26 00:09:01;;;;;;;;;14.67;12.33;;;;;18.99;100.00;101850.69;5075297;27;63637;-76
2023/09/26 00:11:27;;;;;;;;;13.33;12.00;;;;;18.99;100.00;101844.44;5074962;27;45489;-76
2023/09/26 00:13:52;;;;;;;;;13.67;12.67;;;;;19.03;100.00;101851.56;5076375;27;45557;-76
2023/09/26 00:16:18;;;;;;;;;13.33;13.00;;;;;19.06;100.00;101847.06;5070793;27;68400;-76
2023/09/26 00:18:43;;;;;;;;;11.67;10.00;;;;;19.11;100.00;101841.66;5074432;27;60694;-75
2023/09/26 00:21:12;;;;;;;;;14.00;11.00;;;;;19.17;100.00;101846.06;5070144;28;45535;-76
2023/09/26 00:23:38;;;;;;;;;12.00;12.00;;;;;19.20;100.00;101846.94;5076725;27;45616;-75
2023/09/26 00:26:04;;;;;;;;;14.67;12.00;;;;;19.27;100.00;101848.66;5075050;27;71952;-75
2023/09/26 00:28:30;;;;;;;;;16.00;12.33;;;;;19.30;100.00;101847.78;5077028;28;45362;-75
2023/09/26 00:30:56;;;;;;;;;13.00;13.00;;;;;19.36;100.00;101845.03;5075851;27;57127;-75
2023/09/26 00:33:22;;;;;;;;;16.00;16.00;;;;;19.40;100.00;101853.94;5076751;27;45549;-75
2023/09/26 00:35:48;;;;;;;;;13.67;12.33;;;;;19.43;100.00;101854.78;5076414;27;47603;-75
2023/09/26 00:38:13;;;;;;;;;15.67;14.00;;;;;19.48;100.00;101852.06;5074383;27;64480;-76
2023/09/26 00:40:42;;;;;;;;;14.00;13.00;;;;;19.51;100.00;101852.94;5075466;28;45469;-76
2023/09/26 00:43:08;;;;;;;;;13.67;13.00;;;;;19.51;100.00;101847.56;5073960;27;45515;-76
2023/09/26 00:45:35;;;;;;;;;14.33;14.33;;;;;19.51;100.00;101842.22;5073411;28;46427;-75
2023/09/26 00:48:01;;;;;;;;;13.00;13.00;;;;;19.47;100.00;101839.56;5069853;27;45512;-75
2023/09/26 00:50:26;;;;;;;;;8.33;5.00;;;;;19.48;100.00;101852.94;5076448;27;45370;-75
2023/09/26 00:52:53;;;;;;;;;17.33;12.67;;;;;19.46;100.00;101848.50;5073613;28;62564;-74
2023/09/26 00:55:24;;;;;;;;;14.67;13.33;;;;;19.44;100.00;101842.25;5076347;27;45843;-74
2023/09/26 00:57:50;;;;;;;;;16.00;13.00;;;;;19.45;100.00;101855.66;5075121;27;45418;-74
2023/09/26 01:00:18;;;;;;;;;17.00;14.00;;;;;19.45;100.00;101838.72;5074876;27;66674;-74
2023/09/26 01:02:44;;;;;;;;;17.67;16.00;;;;;19.45;100.00;101839.59;5076179;27;45619;-74
2023/09/26 01:05:09;;;;;;;;;15.00;13.33;;;;;19.46;100.00;101832.44;5076369;27;49502;-74
2023/09/26 01:07:35;;;;;;;;;15.00;11.67;;;;;19.47;100.00;101829.75;5078631;27;68316;-74
2023/09/26 01:10:03;;;;;;;;;13.00;9.67;;;;;19.49;100.00;101837.75;5079819;27;45397;-74
2023/09/26 01:12:28;;;;;;;;;13.00;12.67;;;;;19.52;100.00;101827.91;5078139;27;45498;-74
2023/09/26 01:14:56;;;;;;;;;15.00;15.00;;;;;19.52;100.00;101838.63;5078793;27;46627;-74
2023/09/26 01:17:22;;;;;;;;;16.00;13.00;;;;;19.54;100.00;101834.13;5078224;27;63654;-74
2023/09/26 01:19:47;;;;;;;;;14.67;11.67;;;;;19.54;100.00;101835.91;5080225;27;45592;-74
2023/09/26 01:22:17;;;;;;;;;14.00;14.00;;;;;19.52;100.00;101829.69;5077821;27;63517;-74
2023/09/26 01:24:43;;;;;;;;;15.00;12.00;;;;;19.48;100.00;101834.19;5078682;27;46747;-74
2023/09/26 01:27:09;;;;;;;;;14.00;12.33;;;;;19.45;100.00;101823.53;5078326;27;45318;-74
2023/09/26 01:29:34;;;;;;;;;15.00;13.00;;;;;19.46;100.00;101833.31;5078679;27;45418;-74
2023/09/26 01:31:59;;;;;;;;;16.67;13.67;;;;;19.44;100.00;101823.50;5077349;28;53887;-74
2023/09/26 01:34:25;;;;;;;;;16.33;16.00;;;;;19.44;100.00;101821.75;5076381;27;70897;-74
2023/09/26 01:36:50;;;;;;;;;14.00;12.00;;;;;19.44;100.00;101823.50;5077582;27;66988;-74
2023/09/26 01:39:15;;;;;;;;;16.33;13.67;;;;;19.45;100.00;101818.16;5078300;27;45322;-74
2023/09/26 01:41:41;;;;;;;;;14.33;13.00;;;;;19.45;100.00;101807.44;5076303;27;45426;-74
2023/09/26 01:44:06;;;;;;;;;14.33;13.00;;;;;19.42;100.00;101802.09;5077762;27;65501;-74
2023/09/26 01:46:32;;;;;;;;;8.00;8.00;;;;;19.43;100.00;101793.16;5077888;27;45161;-75
2023/09/26 01:48:57;;;;;;;;;10.33;10.33;;;;;19.42;100.00;101793.19;5077079;27;45464;-74
2023/09/26 01:51:23;;;;;;;;;15.67;11.67;;;;;19.41;100.00;101811.06;5077940;27;45250;-74
2023/09/26 01:53:48;;;;;;;;;14.00;11.33;;;;;19.38;100.00;101817.31;5077959;27;46462;-74
2023/09/26 01:56:13;;;;;;;;;14.67;13.00;;;;;19.30;100.00;101821.88;5077158;27;66920;-75
2023/09/26 01:58:39;;;;;;;;;11.00;11.00;;;;;19.28;100.00;101820.09;5077420;27;62548;-75
2023/09/26 02:01:04;;;;;;;;;10.67;10.67;;;;;19.25;100.00;101823.69;5074244;28;45440;-74
2023/09/26 02:03:30;;;;;;;;;14.67;13.00;;;;;19.26;100.00;101814.75;5078373;27;47489;-75
2023/09/26 02:05:57;;;;;;;;;15.00;14.00;;;;;19.20;100.00;101813.94;5068941;27;51836;-74
2023/09/26 02:08:22;;;;;;;;;13.67;12.33;;;;;19.27;100.00;101808.50;5070418;28;45492;-74
2023/09/26 02:10:47;;;;;;;;;11.00;11.00;;;;;19.32;100.00;101798.63;5071985;27;59193;-74
2023/09/26 02:13:13;;;;;;;;;15.67;13.00;;;;;19.25;100.00;101799.59;5075963;27;72141;-74
2023/09/26 02:15:38;;;;;;;;;14.00;12.67;;;;;19.26;100.00;101803.16;5069905;28;45349;-74
2023/09/26 02:18:05;;;;;;;;;16.00;15.00;;;;;19.21;100.00;101803.19;5072400;27;45304;-75
2023/09/26 02:20:30;;;;;;;;;14.67;13.67;;;;;19.11;100.00;101802.38;5068783;28;45848;-75
2023/09/26 02:22:56;;;;;;;;;15.67;14.33;;;;;19.16;100.00;101799.69;5075034;28;71199;-74
2023/09/26 02:25:23;;;;;;;;;13.33;12.67;;;;;19.15;100.00;101807.72;5077193;27;45379;-75
2023/09/26 02:27:49;;;;;;;;;12.67;12.67;;;;;19.17;100.00;101801.44;5077981;27;45216;-74
2023/09/26 02:30:18;;;;;;;;;14.00;10.67;;;;;19.15;100.00;101803.25;5077712;27;45158;-74
2023/09/26 02:32:43;;;;;;;;;11.67;10.00;;;;;19.14;100.00;101792.56;5075942;27;46681;-74
2023/09/26 02:35:13;;;;;;;;;11.00;11.00;;;;;19.19;100.00;101793.41;5075527;27;67258;-74
2023/09/26 02:37:39;;;;;;;;;12.00;12.00;;;;;19.21;100.00;101791.59;5077656;27;45530;-74
2023/09/26 02:40:07;;;;;;;;;15.33;14.33;;;;;19.26;100.00;101789.78;5069566;27;45719;-74
2023/09/26 02:42:35;;;;;;;;;13.00;11.33;;;;;19.30;100.00;101783.50;5076159;27;46847;-74
2023/09/26 02:45:00;;;;;;;;;12.00;12.00;;;;;19.36;100.00;101781.63;5068079;27;45353;-74
2023/09/26 02:47:26;;;;;;;;;12.67;12.33;;;;;19.38;100.00;101770.91;5077883;27;45322;-74
2023/09/26 02:49:51;;;;;;;;;14.67;11.00;;;;;19.38;100.00;101761.06;5076920;27;62171;-74
2023/09/26 02:52:16;;;;;;;;;12.33;12.00;;;;;19.40;100.00;101765.56;5068675;27;73506;-75
2023/09/26 02:54:42;;;;;;;;;11.33;10.33;;;;;19.40;100.00;101776.25;5074476;27;68099;-74
2023/09/26 02:57:07;;;;;;;;;11.67;11.00;;;;;19.43;100.00;101779.78;5076815;27;45328;-74
2023/09/26 02:59:32;;;;;;;;;10.00;10.00;;;;;19.45;100.00;101786.03;5076412;27;62447;-74
2023/09/26 03:01:58;;;;;;;;;13.33;10.00;;;;;19.37;100.00;101778.03;5075630;27;72319;-74
2023/09/26 03:04:24;;;;;;;;;10.00;10.00;;;;;19.34;100.00;101777.22;5076370;27;45486;-74
2023/09/26 03:06:49;;;;;;;;;13.00;9.00;;;;;19.27;100.00;101787.06;5077299;27;45332;-75
2023/09/26 03:09:17;;;;;;;;;11.00;11.00;;;;;19.28;100.00;101770.13;5076098;27;63018;-75
2023/09/26 03:11:43;;;;;;;;;11.00;11.00;;;;;19.22;100.00;101770.16;5076912;27;47200;-74
2023/09/26 03:14:09;;;;;;;;;12.67;11.33;;;;;19.19;100.00;101770.22;5076140;27;45411;-74
2023/09/26 03:16:34;;;;;;;;;13.00;10.33;;;;;19.19;100.00;101764.84;5077002;27;45452;-75
2023/09/26 03:19:00;;;;;;;;;12.00;10.00;;;;;19.15;100.00;101763.09;5072712;27;45481;-74
2023/09/26 03:21:25;;;;;;;;;10.67;10.00;;;;;19.14;100.00;101763.13;5076833;27;47309;-75
2023/09/26 03:23:50;;;;;;;;;11.67;9.00;;;;;19.13;100.00;101754.22;5076158;27;68466;-74
2023/09/26 03:26:16;;;;;;;;;11.00;11.00;;;;;19.12;100.00;101747.06;5076064;27;66159;-74
2023/09/26 03:28:42;;;;;;;;;13.00;8.67;;;;;19.07;100.00;101755.16;5075009;27;64895;-74
2023/09/26 03:31:10;;;;;;;;;10.67;10.33;;;;;19.05;100.00;101754.25;5077123;27;46546;-74
2023/09/26 03:33:36;;;;;;;;;9.00;9.00;;;;;19.09;100.00;101760.50;5076395;27;45718;-74
2023/09/26 03:36:05;;;;;;;;;9.00;9.00;;;;;19.05;100.00;101759.63;5077583;27;45356;-74
2023/09/26 03:38:31;;;;;;;;;10.67;8.67;;;;;19.04;100.00;101752.50;5076194;27;45441;-74
2023/09/26 03:40:57;;;;;;;;;11.33;8.67;;;;;19.01;100.00;101765.00;5075460;27;58563;-74
2023/09/26 03:43:24;;;;;;;;;9.00;9.00;;;;;19.00;100.00;101757.88;5074253;27;45494;-74
2023/09/26 03:45:49;;;;;;;;;10.00;9.67;;;;;19.00;100.00;101760.56;5071650;27;45279;-74
2023/09/26 03:48:14;;;;;;;;;9.00;8.67;;;;;18.97;100.00;101752.56;5075241;27;65824;-74
2023/09/26 03:50:41;;;;;;;;;10.00;8.67;;;;;18.97;100.00;101750.78;5075734;27;47894;-74
2023/09/26 03:53:07;;;;;;;;;10.67;10.00;;;;;18.94;100.00;101748.13;5072972;27;45315;-74
2023/09/26 03:55:32;;;;;;;;;11.67;8.00;;;;;18.91;100.00;101737.47;5076423;27;45451;-74
2023/09/26 03:57:58;;;;;;;;;12.00;10.67;;;;;18.91;100.00;101745.50;5076495;27;45530;-74
2023/09/26 04:00:26;;;;;;;;;10.00;9.00;;;;;18.96;100.00;101745.44;5075622;27;71774;-74
2023/09/26 04:02:54;;;;;;;;;9.33;8.00;;;;;18.90;100.00;101740.13;5076062;27;45318;-74
2023/09/26 04:05:19;;;;;;;;;12.00;11.00;;;;;18.92;100.00;101735.69;5076593;27;45398;-74
2023/09/26 04:07:45;;;;;;;;;10.67;10.33;;;;;18.88;100.00;101734.81;5074961;27;53416;-74
2023/09/26 04:10:10;;;;;;;;;10.33;9.00;;;;;18.82;100.00;101741.09;5075374;27;68433;-74
2023/09/26 04:12:35;;;;;;;;;13.67;10.00;;;;;18.84;100.00;101728.59;5076081;27;45433;-74
2023/09/26 04:15:01;;;;;;;;;13.33;11.00;;;;;18.79;100.00;101729.53;5070093;27;66078;-74
2023/09/26 04:17:29;;;;;;;;;14.33;12.00;;;;;18.74;100.00;101721.53;5074211;27;57685;-74
2023/09/26 04:19:54;;;;;;;;;15.00;12.33;;;;;18.78;100.00;101711.69;5071605;27;47577;-75
2023/09/26 04:22:20;;;;;;;;;12.67;12.33;;;;;18.75;100.00;101714.38;5073700;27;45364;-74
2023/09/26 04:24:45;;;;;;;;;12.33;10.33;;;;;18.72;100.00;101712.63;5075140;28;62873;-75
2023/09/26 04:27:10;;;;;;;;;10.67;10.67;;;;;18.70;100.00;101717.13;5075453;27;52110;-75
2023/09/26 04:29:35;;;;;;;;;12.00;12.00;;;;;18.65;100.00;101707.34;5075006;27;70824;-74
2023/09/26 04:32:01;;;;;;;;;13.33;10.33;;;;;18.62;100.00;101721.59;5071871;27;69252;-74
2023/09/26 04:34:27;;;;;;;;;14.00;12.33;;;;;18.62;100.00;101726.06;5075478;27;66213;-74
2023/09/26 04:36:53;;;;;;;;;12.00;11.00;;;;;18.63;100.00;101727.84;5075300;27;45303;-74
2023/09/26 04:39:18;;;;;;;;;11.00;10.00;;;;;18.62;100.00;101732.31;5071803;27;55793;-74
2023/09/26 04:41:45;;;;;;;;;15.67;12.67;;;;;18.57;100.00;101727.00;5071701;27;69072;-75
2023/09/26 04:44:10;;;;;;;;;12.00;10.67;;;;;18.59;100.00;101727.88;5073321;27;45284;-74
2023/09/26 04:46:36;;;;;;;;;8.00;8.00;;;;;18.59;100.00;101727.88;5074382;27;45566;-73
2023/09/26 04:49:01;;;;;;;;;14.67;10.00;;;;;18.53;100.00;101716.31;5072380;27;58073;-72
2023/09/26 04:51:27;;;;;;;;;12.33;9.67;;;;;18.54;100.00;101728.81;5073026;27;45473;-73
2023/09/26 04:53:52;;;;;;;;;11.33;11.33;;;;;18.52;100.00;101720.78;5073749;28;47320;-73
2023/09/26 04:56:18;;;;;;;;;15.00;13.00;;;;;18.50;100.00;101716.34;5078101;27;45425;-73
2023/09/26 04:58:43;;;;;;;;;10.00;9.00;;;;;18.54;100.00;101718.13;5076473;27;71569;-73
2023/09/26 05:01:13;;;;;;;;;11.00;11.00;;;;;18.48;100.00;101707.44;5076737;27;70013;-74
2023/09/26 05:03:38;;;;;;;;;10.00;10.00;;;;;18.47;100.00;101708.34;5075541;27;45426;-74
2023/09/26 05:06:04;;;;;;;;;11.33;11.33;;;;;18.44;100.00;101706.59;5076300;28;62770;-75
2023/09/26 05:08:29;;;;;;;;;10.00;10.00;;;;;18.44;100.00;101705.72;5075901;27;45718;-74
2023/09/26 05:10:54;;;;;;;;;13.00;11.00;;;;;18.44;100.00;101693.22;5067578;27;45371;-74
2023/09/26 05:13:20;;;;;;;;;10.67;9.33;;;;;18.43;100.00;101703.91;5066283;28;64896;-75
2023/09/26 05:15:45;;;;;;;;;9.33;9.33;;;;;18.42;100.00;101702.16;5074311;28;63714;-74
2023/09/26 05:18:10;;;;;;;;;9.33;8.00;;;;;18.41;100.00;101701.25;5076780;27;60374;-74
2023/09/26 05:20:36;;;;;;;;;12.33;11.00;;;;;18.38;100.00;101703.09;5076056;27;45477;-75
2023/09/26 05:23:03;;;;;;;;;11.00;10.00;;;;;18.35;100.00;101701.31;5078445;28;45467;-74
2023/09/26 05:25:28;;;;;;;;;13.00;12.00;;;;;18.34;100.00;101699.53;5078741;27;45509;-74
2023/09/26 05:27:53;;;;;;;;;11.00;10.00;;;;;18.31;100.00;101702.22;5075740;27;47348;-75
2023/09/26 05:30:19;;;;;;;;;13.00;9.33;;;;;18.26;100.00;101702.25;5073008;27;68669;-74
2023/09/26 05:32:44;;;;;;;;;12.33;11.00;;;;;18.28;100.00;101700.47;5073455;28;45457;-75
2023/09/26 05:35:10;;;;;;;;;13.33;11.00;;;;;18.31;100.00;101699.56;5076168;27;45392;-74
2023/09/26 05:37:36;;;;;;;;;10.67;9.33;;;;;18.30;100.00;101687.97;5074589;28;47313;-74
2023/09/26 05:40:06;;;;;;;;;11.00;11.00;;;;;18.31;100.00;101688.84;5077055;27;45511;-74
2023/09/26 05:42:32;;;;;;;;;10.67;9.33;;;;;18.30;100.00;101695.09;5071411;28;45641;-73
2023/09/26 05:44:57;;;;;;;;;10.00;10.00;;;;;18.29;100.00;101698.69;5076762;27;46730;-73
2023/09/26 05:47:23;;;;;;;;;7.00;7.00;;;;;18.30;100.00;101698.66;5076367;27;70074;-73
2023/09/26 05:49:50;;;;;;;;;12.00;10.33;;;;;18.33;100.00;101706.69;5075039;27;63386;-75
2023/09/26 05:52:15;;;;;;;;;11.67;9.67;;;;;18.31;100.00;101702.22;5074618;27;45428;-75
2023/09/26 05:54:41;;;;;;;;;11.00;11.00;;;;;18.35;100.00;101695.06;5074666;27;45330;-74
2023/09/26 05:57:06;;;;;;;;;10.33;10.33;;;;;18.38;100.00;101700.41;5073313;27;70902;-76
2023/09/26 05:59:31;;;;;;;;;11.00;11.00;;;;;18.38;100.00;101695.06;5072841;27;45436;-74
2023/09/26 06:01:57;;;;;;;;;13.00;10.00;;;;;18.42;100.00;101686.97;5071220;27;45522;-75
2023/09/26 06:04:22;;;;;;;;;10.33;9.67;;;;;18.39;100.00;101686.16;5066141;27;65889;-75
2023/09/26 06:06:47;;;;;;;;;11.33;10.33;;;;;18.41;100.00;101685.22;5062760;27;73214;-76
2023/09/26 06:09:13;;;;;;;;;12.00;12.00;;;;;18.46;100.00;101686.06;5072152;27;69561;-75
2023/09/26 06:11:39;;;;;;;;;9.33;7.00;;;;;18.50;100.00;101685.16;5073109;27;45401;-76
2023/09/26 06:14:05;;;;;;;;;11.33;11.33;;;;;18.52;100.00;101695.81;5074238;27;45628;-76
2023/09/26 06:16:30;;;;;;;;;12.00;12.00;;;;;18.53;100.00;101686.91;5072479;27;47153;-75
2023/09/26 06:18:56;;;;;;;;;12.00;12.00;;;;;18.54;100.00;101686.91;5075389;27;45489;-74
2023/09/26 06:21:21;;;;;;;;;10.00;10.00;;;;;18.57;100.00;101691.31;5072390;27;46686;-74
2023/09/26 06:23:48;;;;;;;;;15.67;12.00;;;;;18.57;100.00;101694.00;5073123;27;45529;-74
2023/09/26 06:26:14;;;;;;;;;11.00;11.00;;;;;18.58;100.00;101710.03;5066362;27;47195;-74
2023/09/26 06:28:39;;;;;;;;;13.00;10.00;;;;;18.56;100.00;101710.97;5075628;27;45862;-79
2023/09/26 06:31:08;;;;;;;;;15.00;11.67;;;;;18.49;100.00;101698.53;5068684;27;58474;-75
2023/09/26 06:33:35;;;;;;;;;13.00;13.00;;;;;18.41;100.00;101682.53;5071165;27;45257;-75
2023/09/26 06:36:00;;;;;;;;;13.33;12.00;;;;;18.34;100.00;101680.81;5066542;27;45622;-76
2023/09/26 06:38:26;;;;;;;;;11.67;11.67;;;;;18.27;100.00;101682.66;5073204;27;45367;-77
2023/09/26 06:41:01;;;;;;;;;15.33;15.00;;;;;18.30;100.00;101700.44;5070892;28;66268;-76
2023/09/26 06:43:27;;;;;;;;;15.67;14.67;;;;;18.32;100.00;101699.56;5067532;28;45516;-75
2023/09/26 06:45:52;;;;;;;;;12.33;12.00;;;;;18.41;100.00;101697.69;5072507;28;46538;-76
2023/09/26 06:48:18;;;;;;;;;16.00;15.00;;;;;18.49;100.00;101701.22;5066257;27;45431;-75
2023/09/26 06:50:43;;;;;;;;;14.00;14.00;;;;;18.55;100.00;101709.19;5069991;28;45438;-76
2023/09/26 06:53:08;;;;;;;;;14.67;14.67;;;;;18.62;100.00;101705.56;5067199;27;65483;-76
2023/09/26 06:55:39;;;;;;;;;19.00;16.00;;;;;18.70;100.00;101698.41;5072338;27;47175;-76
2023/09/26 06:58:04;;;;;;;;;14.33;14.33;;;;;18.82;100.00;101700.97;5073531;27;45143;-75
2023/09/26 07:00:29;;;;;;;;;19.33;16.00;;;;;18.95;100.00;101709.75;5069611;28;45517;-76
2023/09/26 07:02:55;;;;;;;;;20.67;16.00;;;;;19.03;100.00;101707.91;5069315;27;61413;-77
2023/09/26 07:05:20;;;;;;;;;17.00;15.00;;;;;19.10;100.00;101703.38;5075217;27;71171;-77
2023/09/26 07:07:45;;;;;;;;;21.00;16.67;;;;;19.24;100.00;101696.09;5073077;28;45350;-76
2023/09/26 07:10:11;;;;;;;;;20.00;16.00;;;;;19.35;100.00;101704.00;5077092;27;45363;-78
2023/09/26 07:12:37;;;;;;;;;19.00;15.33;;;;;19.38;100.00;101704.81;5074801;27;45426;-77
2023/09/26 07:15:02;;;;;;;;;16.67;14.67;;;;;19.48;100.00;101718.13;5071244;27;46883;-77
2023/09/26 07:17:28;;;;;;;;;16.00;16.00;;;;;19.54;100.00;101708.22;5075597;27;45441;-75
2023/09/26 07:19:53;;;;;;;;;17.00;14.00;;;;;19.65;100.00;101708.13;5068734;28;45393;-76
2023/09/26 07:22:19;;;;;;;;;19.67;15.33;;;;;19.75;100.00;101712.44;5073132;27;53422;-76
2023/09/26 07:24:55;;;;;;;;;15.00;10.33;;;;;19.85;100.00;101703.38;5130492;27;45470;-76
2023/09/26 07:27:20;;;;;;;;;15.00;14.00;;;;;19.94;100.00;101698.81;5113238;27;45538;-74
2023/09/26 07:29:46;;;;;;;;;13.00;13.00;;;;;19.99;100.00;101713.94;5108144;27;62540;-74
2023/09/26 07:32:12;;;;;;;;;13.00;10.33;;;;;20.04;100.00;101705.84;5113815;27;45319;-74
2023/09/26 07:34:37;;;;;;;;;9.33;9.00;;;;;20.05;100.00;101704.91;5111547;27;57168;-74
2023/09/26 07:37:02;;;;;;;;;9.33;9.33;;;;;20.08;100.00;101694.13;5106770;27;47121;-74
2023/09/26 07:39:28;;;;;;;;;8.00;6.00;;;;;20.13;100.00;101694.94;5106775;27;59185;-73
2023/09/26 07:41:53;;;;;;;;;7.33;7.33;;;;;20.14;100.00;101691.38;5107668;27;57207;-76
2023/09/26 07:44:18;;;;;;;;;7.67;7.00;;;;;20.18;100.00;101703.81;5113454;27;69631;-73
2023/09/26 07:46:44;;;;;;;;;7.33;7.33;;;;;20.23;100.00;101696.59;5128531;27;45428;-74
2023/09/26 07:49:09;;;;;;;;;8.00;6.67;;;;;20.29;100.00;101701.84;5122019;27;47666;-75
2023/09/26 07:51:34;;;;;;;;;7.00;5.33;;;;;20.31;100.00;101705.41;5120847;27;46801;-74
2023/09/26 07:54:00;;;;;;;;;10.67;7.33;;;;;20.38;100.00;101704.41;5112936;27;71722;-74
2023/09/26 07:56:25;;;;;;;;;7.00;6.00;;;;;20.47;100.00;101699.84;5116807;27;71186;-74
2023/09/26 07:58:50;;;;;;;;;9.00;6.67;;;;;20.52;100.00;101697.97;5123872;27;45478;-75
2023/09/26 08:01:16;;;;;;;;;8.00;7.00;;;;;20.59;100.00;101692.47;5114201;27;45278;-75
2023/09/26 08:03:43;;;;;;;;;7.00;7.00;;;;;20.64;100.00;101695.97;5117339;27;66947;-75
2023/09/26 08:06:09;;;;;;;;;7.67;6.00;;;;;20.69;100.00;101697.69;5122548;27;45220;-74
2023/09/26 08:08:35;;;;;;;;;8.67;7.00;;;;;20.74;100.00;101694.03;5118343;27;45567;-74
2023/09/26 08:11:11;;;;;;;;;8.00;6.33;;;;;20.82;100.00;101699.25;5120574;27;45439;-74
2023/09/26 08:13:38;;;;;;;;;6.33;6.33;;;;;20.86;100.00;101698.28;5118207;27;47053;-74
2023/09/26 08:16:03;;;;;;;;;7.33;4.33;;;;;20.94;100.00;101693.69;5200180;22;46395;-76
2023/09/26 08:18:29;;;;;;;;;9.33;8.33;;;;;21.00;100.00;101695.34;5088888;27;45446;-75
2023/09/26 08:20:57;;;;;;;;;9.00;7.00;;;;;21.06;100.00;101688.06;5092082;27;65100;-76
2023/09/26 08:23:23;;;;;;;;;7.00;7.00;;;;;21.10;100.00;101694.28;5083337;27;46034;-75
2023/09/26 08:25:49;;;;;;;;;14.00;11.00;;;;;21.16;100.00;101686.09;5085548;27;45221;-75
2023/09/26 08:28:16;;;;;;;;;5.33;4.33;;;;;21.23;100.00;101689.53;5091962;27;45477;-74
2023/09/26 08:30:41;;;;;;;;;11.67;6.67;;;;;21.27;100.00;101689.47;5091472;27;45361;-75
2023/09/26 08:33:06;;;;;;;;;6.00;6.00;;;;;21.29;100.00;101684.03;5088205;27;71072;-75
2023/09/26 08:35:32;;;;;;;;;8.00;7.00;;;;;21.32;100.00;101684.91;5081039;27;60003;-75
2023/09/26 08:37:57;;;;;;;;;8.67;7.67;;;;;21.32;100.00;101676.84;5071808;28;59933;-75
2023/09/26 08:40:25;;;;;;;;;5.33;5.33;;;;;21.34;100.00;101664.25;5060821;28;45411;-75
2023/09/26 08:42:52;;;;;;;;;9.00;6.00;;;;;21.44;100.00;101663.16;5073797;28;46566;-75
2023/09/26 08:45:18;;;;;;;;;8.00;6.00;;;;;21.48;100.00;101674.75;5060724;28;45356;-75
2023/09/26 08:47:44;;;;;;;;;7.00;5.33;;;;;21.48;100.00;101671.19;5057547;28;67483;-75
2023/09/26 08:50:10;;;;;;;;;7.00;5.67;;;;;21.50;100.00;101670.22;5070704;28;45197;-75
2023/09/26 08:52:35;;;;;;;;;6.33;5.00;;;;;21.47;100.00;101675.66;5074129;28;47107;-74
2023/09/26 08:55:02;;;;;;;;;7.33;5.33;;;;;21.44;100.00;101667.66;5075934;28;45196;-74
2023/09/26 08:57:27;;;;;;;;;8.00;6.00;;;;;21.40;100.00;101664.13;5072692;28;45435;-75
2023/09/26 08:59:54;;;;;;;;;8.00;6.33;;;;;21.41;100.00;101670.38;5055250;28;60840;-75
2023/09/26 09:02:19;;;;;;;;;4.33;4.33;;;;;21.41;100.00;101659.63;5076779;28;47640;-75
2023/09/26 09:04:45;;;;;;;;;5.67;5.67;;;;;21.41;100.00;101665.94;5074171;28;66561;-74
2023/09/26 09:07:12;;;;;;;;;7.67;6.33;;;;;21.43;100.00;101669.47;5076330;28;65513;-74
2023/09/26 09:09:38;;;;;;;;;7.00;7.00;;;;;21.42;100.00;101656.94;5069624;28;45347;-74
2023/09/26 09:12:22;;;;;;;;;8.67;6.00;;;;;21.44;100.00;101662.28;5056282;28;46424;-75
2023/09/26 09:14:47;;;;;;;;;8.67;7.00;;;;;21.43;100.00;101661.41;5073677;28;60413;-77
2023/09/26 09:17:13;;;;;;;;;12.67;8.00;;;;;21.49;100.00;101649.63;5072709;28;45500;-76
2023/09/26 09:19:45;;;;;;;;;7.33;6.67;;;;;21.47;100.00;101650.59;5070946;28;45552;-75
2023/09/26 09:22:20;;;;;;;;;11.67;7.33;;;;;21.45;100.00;101650.59;5076328;28;46673;-74
2023/09/26 09:24:54;;;;;;;;;11.00;8.00;;;;;21.47;100.00;101661.34;5078132;28;45386;-75
2023/09/26 09:27:34;;;;;;;;;6.00;5.00;;;;;21.50;100.00;101647.81;5073324;28;45313;-75
2023/09/26 09:30:12;;;;;;;;;6.67;5.33;;;;;21.53;100.00;101654.03;5078067;28;45573;-77
2023/09/26 09:32:42;;;;;;;;;9.33;7.33;;;;;21.62;100.00;101647.56;5070841;28;47723;-76
2023/09/26 09:35:14;;;;;;;;;7.67;7.67;;;;;21.73;100.00;101648.19;5075156;28;45297;-75
2023/09/26 09:37:43;;;;;;;;;6.67;6.67;;;;;21.85;100.00;101655.13;5074133;28;45329;-75
2023/09/26 09:40:09;;;;;;;;;7.67;6.00;;;;;21.93;100.00;101655.81;5052921;28;45354;-75
2023/09/26 09:42:36;;;;;;;;;8.00;6.00;;;;;21.97;100.00;101641.41;5077696;28;47393;-75
2023/09/26 09:45:01;;;;;;;;;5.00;5.00;;;;;22.06;100.00;101645.69;5078076;28;45450;-75
2023/09/26 09:47:29;;;;;;;;;8.33;6.00;;;;;22.11;100.00;101642.00;5055139;28;46925;-74
2023/09/26 09:49:59;;;;;;;;;8.00;6.00;;;;;22.14;100.00;101641.03;5075810;28;45296;-75
2023/09/26 09:52:28;;;;;;;;;7.33;7.33;;;;;22.17;100.00;101636.47;5071682;28;46944;-76
2023/09/26 09:54:56;;;;;;;;;8.33;5.33;;;;;22.21;100.00;101642.63;5070662;28;45467;-74
2023/09/26 09:57:22;;;;;;;;;8.67;6.00;;;;;22.21;100.00;101654.31;5056592;28;45505;-77
2023/09/26 09:59:48;;;;;;;;;6.00;6.00;;;;;22.27;100.00;101650.59;5076711;28;45597;-76
2023/09/26 10:02:16;;;;;;;;;7.00;7.00;;;;;22.34;100.00;101645.94;5072622;28;73005;-75
2023/09/26 10:04:44;;;;;;;;;6.67;6.67;;;;;22.39;100.00;101652.97;5075303;28;45388;-75
2023/09/26 10:07:11;;;;;;;;;6.67;6.67;;;;;22.43;100.00;101649.28;5072464;28;45427;-76
2023/09/26 10:09:38;;;;;;;;;9.33;8.00;;;;;22.48;100.00;101647.34;5073505;28;45559;-73
2023/09/26 10:12:04;;;;;;;;;6.33;6.33;;;;;22.51;100.00;101646.38;5059613;28;46204;-75
2023/09/26 10:14:31;;;;;;;;;11.33;6.33;;;;;22.58;100.00;101652.47;5076279;28;45525;-75
2023/09/26 10:16:59;;;;;;;;;7.33;5.67;;;;;22.63;100.00;101653.25;5077043;28;45363;-74
2023/09/26 10:19:28;;;;;;;;;8.00;6.67;;;;;22.70;100.00;101658.44;5072274;28;45597;-74
2023/09/26 10:22:13;;;;;;;;;7.67;6.00;;;;;22.77;100.00;101644.81;5076768;28;47373;-72
2023/09/26 10:24:48;;;;;;;;;6.33;6.33;;;;;22.80;100.00;101620.50;5077285;28;45421;-73
2023/09/26 10:27:22;;;;;;;;;6.00;6.00;;;;;22.81;100.00;101615.09;5070349;28;45383;-72
2023/09/26 10:29:47;;;;;;;;;8.67;5.00;;;;;22.80;100.00;101607.94;5075557;28;45362;-73
2023/09/26 10:32:21;;;;;;;;;8.33;6.67;;;;;22.83;100.00;101620.41;5070813;28;70958;-74
2023/09/26 10:34:47;;;;;;;;;4.67;4.67;;;;;22.82;100.00;101627.63;5073359;28;45372;-73
2023/09/26 10:37:18;;;;;;;;;7.67;6.00;;;;;22.89;100.00;101625.66;5077231;28;45408;-75
2023/09/26 10:39:44;;;;;;;;;8.00;6.67;;;;;23.02;100.00;101626.22;5075418;28;45545;-75
2023/09/26 10:42:15;;;;;;;;;7.00;6.00;;;;;23.09;100.00;101619.72;5076385;28;46579;-76
2023/09/26 10:44:42;;;;;;;;;9.00;7.00;;;;;23.19;100.00;101623.94;5058856;28;45418;-74
2023/09/26 10:47:08;;;;;;;;;5.33;5.33;;;;;23.28;100.00;101631.75;5071047;28;45497;-74
2023/09/26 10:49:33;;;;;;;;;7.00;5.67;;;;;23.39;100.00;101629.63;5074768;28;45496;-74
2023/09/26 10:52:01;;;;;;;;;8.00;6.00;;;;;23.49;100.00;101623.03;5075894;28;47124;-73
2023/09/26 10:54:27;;;;;;;;;7.67;6.00;;;;;23.64;100.00;101620.81;5068245;28;45499;-74
2023/09/26 10:56:52;;;;;;;;;8.00;6.67;;;;;23.77;100.00;101627.63;5065043;28;45539;-74
2023/09/26 10:59:18;;;;;;;;;6.00;6.00;;;;;23.87;100.00;101621.00;5074187;28;45528;-75
2023/09/26 11:01:45;;;;;;;;;9.00;8.00;;;;;23.97;100.00;101614.38;5069241;28;46898;-75
2023/09/26 11:04:11;;;;;;;;;8.00;8.00;;;;;24.11;100.00;101611.22;5069015;28;45450;-74